sensor_id;sensor_type;location;lat;lon;timestamp;P1;durP1;ratioP1;P2;durP2;ratioP2
65328;SDS011;51941;52.210;5.158;2023-09-30T00:00:09;10.38;;;4.25;;
65328;SDS011;51941;52.210;5.158;2023-09-30T00:02:36;8.93;;;3.95;;
65328;SDS011;51941;52.210;5.158;2023-09-30T00:05:03;13.50;;;4.65;;
65328;SDS011;51941;52.210;5.158;2023-09-30T00:07:30;10.98;;;3.97;;
65328;SDS011;51941;52.210;5.158;2023-09-30T00:09:59;8.40;;;4.13;;
65328;SDS011;51941;52.210;5.158;2023-09-30T00:12:25;9.82;;;4.80;;
65328;SDS011;51941;52.210;5.158;2023-09-30T00:14:52;11.20;;;4.25;;
65328;SDS011;51941;52.210;5.158;2023-09-30T00:17:19;14.05;;;4.90;;
65328;SDS011;51941;52.210;5.158;2023-09-30T00:19:45;10.30;;;5.10;;
65328;SDS011;51941;52.210;5.158;2023-09-30T00:22:12;11.63;;;4.82;;
65328;SDS011;51941;52.210;5.158;2023-09-30T00:24:39;12.00;;;4.60;;
65328;SDS011;51941;52.210;5.158;2023-09-30T00:27:07;9.65;;;4.38;;
65328;SDS011;51941;52.210;5.158;2023-09-30T00:29:34;9.90;;;4.70;;
65328;SDS011;51941;52.210;5.158;2023-09-30T00:32:01;11.00;;;4.93;;
65328;SDS011;51941;52.210;5.158;2023-09-30T00:34:27;8.90;;;4.43;;
65328;SDS011;51941;52.210;5.158;2023-09-30T00:36:55;10.20;;;5.20;;
65328;SDS011;51941;52.210;5.158;2023-09-30T00:39:21;12.82;;;4.90;;
65328;SDS011;51941;52.210;5.158;2023-09-30T00:41:51;11.25;;;4.70;;
65328;SDS011;51941;52.210;5.158;2023-09-30T00:44:21;12.88;;;4.70;;
65328;SDS011;51941;52.210;5.158;2023-09-30T00:46:47;11.07;;;4.53;;
65328;SDS011;51941;52.210;5.158;2023-09-30T00:49:14;11.75;;;4.85;;
65328;SDS011;51941;52.210;5.158;2023-09-30T00:51:43;12.87;;;4.60;;
65328;SDS011;51941;52.210;5.158;2023-09-30T00:54:11;9.77;;;4.93;;
65328;SDS011;51941;52.210;5.158;2023-09-30T00:56:39;10.77;;;4.90;;
65328;SDS011;51941;52.210;5.158;2023-09-30T00:59:10;12.00;;;4.68;;
65328;SDS011;51941;52.210;5.158;2023-09-30T01:01:38;11.07;;;4.90;;
65328;SDS011;51941;52.210;5.158;2023-09-30T01:04:05;13.18;;;5.25;;
65328;SDS011;51941;52.210;5.158;2023-09-30T01:06:33;13.13;;;5.05;;
65328;SDS011;51941;52.210;5.158;2023-09-30T01:09:00;13.07;;;5.07;;
65328;SDS011;51941;52.210;5.158;2023-09-30T01:11:28;11.38;;;5.35;;
65328;SDS011;51941;52.210;5.158;2023-09-30T01:13:54;12.63;;;5.32;;
65328;SDS011;51941;52.210;5.158;2023-09-30T01:16:22;12.90;;;5.50;;
65328;SDS011;51941;52.210;5.158;2023-09-30T01:18:50;10.85;;;4.93;;
65328;SDS011;51941;52.210;5.158;2023-09-30T01:21:20;8.60;;;4.75;;
65328;SDS011;51941;52.210;5.158;2023-09-30T01:23:48;11.40;;;4.95;;
65328;SDS011;51941;52.210;5.158;2023-09-30T01:26:15;13.73;;;5.65;;
65328;SDS011;51941;52.210;5.158;2023-09-30T01:28:42;11.32;;;5.30;;
65328;SDS011;51941;52.210;5.158;2023-09-30T01:31:09;12.93;;;5.20;;
65328;SDS011;51941;52.210;5.158;2023-09-30T01:33:35;12.93;;;5.50;;
65328;SDS011;51941;52.210;5.158;2023-09-30T01:36:02;11.68;;;5.10;;
65328;SDS011;51941;52.210;5.158;2023-09-30T01:38:29;10.65;;;5.07;;
65328;SDS011;51941;52.210;5.158;2023-09-30T01:40:57;10.63;;;5.20;;
65328;SDS011;51941;52.210;5.158;2023-09-30T01:43:25;15.35;;;5.93;;
65328;SDS011;51941;52.210;5.158;2023-09-30T01:45:52;9.25;;;5.07;;
65328;SDS011;51941;52.210;5.158;2023-09-30T01:48:19;10.05;;;6.07;;
65328;SDS011;51941;52.210;5.158;2023-09-30T01:50:46;10.73;;;5.22;;
65328;SDS011;51941;52.210;5.158;2023-09-30T01:53:13;9.35;;;4.85;;
65328;SDS011;51941;52.210;5.158;2023-09-30T01:55:40;9.77;;;5.40;;
65328;SDS011;51941;52.210;5.158;2023-09-30T01:58:09;10.65;;;5.18;;
65328;SDS011;51941;52.210;5.158;2023-09-30T02:00:37;8.73;;;5.57;;
65328;SDS011;51941;52.210;5.158;2023-09-30T02:03:03;10.82;;;5.85;;
65328;SDS011;51941;52.210;5.158;2023-09-30T02:05:30;11.23;;;6.13;;
65328;SDS011;51941;52.210;5.158;2023-09-30T02:07:58;11.40;;;5.72;;
65328;SDS011;51941;52.210;5.158;2023-09-30T02:10:24;13.20;;;6.15;;
65328;SDS011;51941;52.210;5.158;2023-09-30T02:12:51;9.43;;;5.95;;
65328;SDS011;51941;52.210;5.158;2023-09-30T02:15:19;10.27;;;6.10;;
65328;SDS011;51941;52.210;5.158;2023-09-30T02:17:46;11.20;;;6.25;;
65328;SDS011;51941;52.210;5.158;2023-09-30T02:20:14;9.18;;;5.82;;
65328;SDS011;51941;52.210;5.158;2023-09-30T02:22:44;10.40;;;5.78;;
65328;SDS011;51941;52.210;5.158;2023-09-30T02:25:11;9.50;;;5.88;;
65328;SDS011;51941;52.210;5.158;2023-09-30T02:27:39;10.15;;;5.82;;
65328;SDS011;51941;52.210;5.158;2023-09-30T02:30:07;13.98;;;6.82;;
65328;SDS011;51941;52.210;5.158;2023-09-30T02:32:36;13.90;;;6.32;;
65328;SDS011;51941;52.210;5.158;2023-09-30T02:35:03;12.10;;;6.85;;
65328;SDS011;51941;52.210;5.158;2023-09-30T02:37:31;13.23;;;7.03;;
65328;SDS011;51941;52.210;5.158;2023-09-30T02:39:59;12.60;;;7.38;;
65328;SDS011;51941;52.210;5.158;2023-09-30T02:42:27;11.68;;;7.28;;
65328;SDS011;51941;52.210;5.158;2023-09-30T02:44:54;14.15;;;8.00;;
65328;SDS011;51941;52.210;5.158;2023-09-30T02:47:20;14.13;;;7.38;;
65328;SDS011;51941;52.210;5.158;2023-09-30T02:49:48;12.90;;;8.05;;
65328;SDS011;51941;52.210;5.158;2023-09-30T02:52:15;14.38;;;7.45;;
65328;SDS011;51941;52.210;5.158;2023-09-30T02:54:42;11.55;;;7.43;;
65328;SDS011;51941;52.210;5.158;2023-09-30T02:57:08;17.02;;;7.70;;
65328;SDS011;51941;52.210;5.158;2023-09-30T02:59:36;20.38;;;8.15;;
65328;SDS011;51941;52.210;5.158;2023-09-30T03:02:03;12.25;;;7.25;;
65328;SDS011;51941;52.210;5.158;2023-09-30T03:04:29;13.50;;;7.68;;
65328;SDS011;51941;52.210;5.158;2023-09-30T03:06:59;15.57;;;7.85;;
65328;SDS011;51941;52.210;5.158;2023-09-30T03:09:25;13.07;;;7.28;;
65328;SDS011;51941;52.210;5.158;2023-09-30T03:11:52;15.85;;;8.27;;
65328;SDS011;51941;52.210;5.158;2023-09-30T03:14:21;13.77;;;7.72;;
65328;SDS011;51941;52.210;5.158;2023-09-30T03:16:50;11.80;;;8.43;;
65328;SDS011;51941;52.210;5.158;2023-09-30T03:19:17;13.95;;;8.45;;
65328;SDS011;51941;52.210;5.158;2023-09-30T03:21:43;16.80;;;8.65;;
65328;SDS011;51941;52.210;5.158;2023-09-30T03:24:12;15.25;;;8.15;;
65328;SDS011;51941;52.210;5.158;2023-09-30T03:26:38;16.20;;;8.40;;
65328;SDS011;51941;52.210;5.158;2023-09-30T03:29:06;12.63;;;8.20;;
65328;SDS011;51941;52.210;5.158;2023-09-30T03:31:34;13.07;;;8.80;;
65328;SDS011;51941;52.210;5.158;2023-09-30T03:34:01;15.43;;;8.75;;
65328;SDS011;51941;52.210;5.158;2023-09-30T03:36:29;12.75;;;8.30;;
65328;SDS011;51941;52.210;5.158;2023-09-30T03:38:56;13.18;;;8.63;;
65328;SDS011;51941;52.210;5.158;2023-09-30T03:41:25;14.15;;;8.45;;
65328;SDS011;51941;52.210;5.158;2023-09-30T03:43:53;16.65;;;9.18;;
65328;SDS011;51941;52.210;5.158;2023-09-30T03:46:20;16.15;;;9.07;;
65328;SDS011;51941;52.210;5.158;2023-09-30T03:48:47;16.10;;;8.48;;
65328;SDS011;51941;52.210;5.158;2023-09-30T03:51:14;15.90;;;9.48;;
65328;SDS011;51941;52.210;5.158;2023-09-30T03:53:41;14.98;;;9.77;;
65328;SDS011;51941;52.210;5.158;2023-09-30T03:56:08;18.05;;;9.80;;
65328;SDS011;51941;52.210;5.158;2023-09-30T03:58:38;22.15;;;9.82;;
65328;SDS011;51941;52.210;5.158;2023-09-30T04:01:05;15.25;;;9.82;;
65328;SDS011;51941;52.210;5.158;2023-09-30T04:03:32;15.95;;;10.15;;
65328;SDS011;51941;52.210;5.158;2023-09-30T04:06:00;16.45;;;9.88;;
65328;SDS011;51941;52.210;5.158;2023-09-30T04:08:28;16.40;;;10.50;;
65328;SDS011;51941;52.210;5.158;2023-09-30T04:13:25;13.68;;;9.48;;
65328;SDS011;51941;52.210;5.158;2023-09-30T04:15:53;17.13;;;9.80;;
65328;SDS011;51941;52.210;5.158;2023-09-30T04:18:20;16.85;;;10.55;;
65328;SDS011;51941;52.210;5.158;2023-09-30T04:20:47;17.45;;;10.10;;
65328;SDS011;51941;52.210;5.158;2023-09-30T04:23:14;15.02;;;10.07;;
65328;SDS011;51941;52.210;5.158;2023-09-30T04:25:41;18.27;;;10.25;;
65328;SDS011;51941;52.210;5.158;2023-09-30T04:28:09;14.05;;;10.07;;
65328;SDS011;51941;52.210;5.158;2023-09-30T04:30:36;19.05;;;10.27;;
65328;SDS011;51941;52.210;5.158;2023-09-30T04:33:04;14.52;;;9.50;;
65328;SDS011;51941;52.210;5.158;2023-09-30T04:35:32;15.82;;;10.95;;
65328;SDS011;51941;52.210;5.158;2023-09-30T04:38:00;17.30;;;10.20;;
65328;SDS011;51941;52.210;5.158;2023-09-30T04:40:27;17.17;;;10.93;;
65328;SDS011;51941;52.210;5.158;2023-09-30T04:42:54;19.58;;;11.10;;
65328;SDS011;51941;52.210;5.158;2023-09-30T04:45:23;16.90;;;10.27;;
65328;SDS011;51941;52.210;5.158;2023-09-30T04:47:51;17.33;;;11.27;;
65328;SDS011;51941;52.210;5.158;2023-09-30T04:50:19;16.65;;;11.15;;
65328;SDS011;51941;52.210;5.158;2023-09-30T04:52:47;15.15;;;10.90;;
65328;SDS011;51941;52.210;5.158;2023-09-30T04:55:13;17.75;;;10.88;;
65328;SDS011;51941;52.210;5.158;2023-09-30T04:57:41;20.00;;;11.20;;
65328;SDS011;51941;52.210;5.158;2023-09-30T05:00:10;17.05;;;10.95;;
65328;SDS011;51941;52.210;5.158;2023-09-30T05:02:38;17.33;;;11.10;;
65328;SDS011;51941;52.210;5.158;2023-09-30T05:05:05;16.40;;;11.07;;
65328;SDS011;51941;52.210;5.158;2023-09-30T05:07:34;24.17;;;11.88;;
65328;SDS011;51941;52.210;5.158;2023-09-30T05:10:01;17.52;;;11.95;;
65328;SDS011;51941;52.210;5.158;2023-09-30T05:12:31;17.55;;;11.23;;
65328;SDS011;51941;52.210;5.158;2023-09-30T05:14:58;19.13;;;12.07;;
65328;SDS011;51941;52.210;5.158;2023-09-30T05:17:25;20.10;;;12.48;;
65328;SDS011;51941;52.210;5.158;2023-09-30T05:19:53;18.67;;;11.95;;
65328;SDS011;51941;52.210;5.158;2023-09-30T05:22:20;18.98;;;12.30;;
65328;SDS011;51941;52.210;5.158;2023-09-30T05:24:50;19.08;;;12.32;;
65328;SDS011;51941;52.210;5.158;2023-09-30T05:27:18;17.50;;;12.05;;
65328;SDS011;51941;52.210;5.158;2023-09-30T05:29:45;17.55;;;11.35;;
65328;SDS011;51941;52.210;5.158;2023-09-30T05:32:12;19.23;;;11.60;;
65328;SDS011;51941;52.210;5.158;2023-09-30T05:34:39;21.85;;;12.93;;
65328;SDS011;51941;52.210;5.158;2023-09-30T05:37:06;18.33;;;11.90;;
65328;SDS011;51941;52.210;5.158;2023-09-30T05:39:33;22.45;;;12.15;;
65328;SDS011;51941;52.210;5.158;2023-09-30T05:42:02;17.65;;;11.73;;
65328;SDS011;51941;52.210;5.158;2023-09-30T05:44:30;19.33;;;11.95;;
65328;SDS011;51941;52.210;5.158;2023-09-30T05:46:57;17.67;;;11.52;;
65328;SDS011;51941;52.210;5.158;2023-09-30T05:49:25;22.38;;;11.50;;
65328;SDS011;51941;52.210;5.158;2023-09-30T05:51:51;20.92;;;11.63;;
65328;SDS011;51941;52.210;5.158;2023-09-30T05:54:18;19.25;;;11.48;;
65328;SDS011;51941;52.210;5.158;2023-09-30T05:56:45;19.75;;;12.27;;
65328;SDS011;51941;52.210;5.158;2023-09-30T05:59:13;23.52;;;12.85;;
65328;SDS011;51941;52.210;5.158;2023-09-30T06:01:40;20.25;;;12.40;;
65328;SDS011;51941;52.210;5.158;2023-09-30T06:04:07;19.13;;;11.43;;
65328;SDS011;51941;52.210;5.158;2023-09-30T06:06:34;17.95;;;12.15;;
65328;SDS011;51941;52.210;5.158;2023-09-30T06:09:01;17.45;;;12.02;;
65328;SDS011;51941;52.210;5.158;2023-09-30T06:11:28;19.48;;;12.15;;
65328;SDS011;51941;52.210;5.158;2023-09-30T06:13:55;19.48;;;12.00;;
65328;SDS011;51941;52.210;5.158;2023-09-30T06:16:25;17.85;;;11.30;;
65328;SDS011;51941;52.210;5.158;2023-09-30T06:18:52;22.27;;;11.95;;
65328;SDS011;51941;52.210;5.158;2023-09-30T06:21:19;23.10;;;11.52;;
65328;SDS011;51941;52.210;5.158;2023-09-30T06:23:47;17.15;;;11.63;;
65328;SDS011;51941;52.210;5.158;2023-09-30T06:26:13;19.92;;;11.55;;
65328;SDS011;51941;52.210;5.158;2023-09-30T06:28:41;20.83;;;12.45;;
65328;SDS011;51941;52.210;5.158;2023-09-30T06:31:08;16.13;;;11.10;;
65328;SDS011;51941;52.210;5.158;2023-09-30T06:33:37;14.35;;;10.32;;
65328;SDS011;51941;52.210;5.158;2023-09-30T06:36:08;17.90;;;10.60;;
65328;SDS011;51941;52.210;5.158;2023-09-30T06:38:35;16.00;;;9.88;;
65328;SDS011;51941;52.210;5.158;2023-09-30T06:41:03;15.05;;;10.60;;
65328;SDS011;51941;52.210;5.158;2023-09-30T06:43:30;18.80;;;10.75;;
65328;SDS011;51941;52.210;5.158;2023-09-30T06:45:57;16.83;;;10.25;;
65328;SDS011;51941;52.210;5.158;2023-09-30T06:48:24;16.27;;;10.50;;
65328;SDS011;51941;52.210;5.158;2023-09-30T06:50:52;14.55;;;9.80;;
65328;SDS011;51941;52.210;5.158;2023-09-30T06:53:19;16.65;;;9.77;;
65328;SDS011;51941;52.210;5.158;2023-09-30T06:55:48;13.13;;;8.98;;
65328;SDS011;51941;52.210;5.158;2023-09-30T06:58:16;14.50;;;8.57;;
65328;SDS011;51941;52.210;5.158;2023-09-30T07:00:46;12.75;;;8.73;;
65328;SDS011;51941;52.210;5.158;2023-09-30T07:03:14;16.67;;;8.98;;
65328;SDS011;51941;52.210;5.158;2023-09-30T07:05:41;18.70;;;9.40;;
65328;SDS011;51941;52.210;5.158;2023-09-30T07:08:09;16.27;;;9.65;;
65328;SDS011;51941;52.210;5.158;2023-09-30T07:10:36;13.60;;;9.65;;
65328;SDS011;51941;52.210;5.158;2023-09-30T07:13:03;13.52;;;9.18;;
65328;SDS011;51941;52.210;5.158;2023-09-30T07:15:31;15.63;;;9.68;;
65328;SDS011;51941;52.210;5.158;2023-09-30T07:17:58;16.98;;;9.95;;
65328;SDS011;51941;52.210;5.158;2023-09-30T07:20:25;16.27;;;9.27;;
65328;SDS011;51941;52.210;5.158;2023-09-30T07:22:52;15.25;;;9.50;;
65328;SDS011;51941;52.210;5.158;2023-09-30T07:25:20;15.70;;;8.80;;
65328;SDS011;51941;52.210;5.158;2023-09-30T07:27:46;13.95;;;9.02;;
65328;SDS011;51941;52.210;5.158;2023-09-30T07:30:14;17.20;;;9.60;;
65328;SDS011;51941;52.210;5.158;2023-09-30T07:32:41;13.38;;;8.52;;
65328;SDS011;51941;52.210;5.158;2023-09-30T07:35:08;13.25;;;8.32;;
65328;SDS011;51941;52.210;5.158;2023-09-30T07:37:35;14.30;;;8.50;;
65328;SDS011;51941;52.210;5.158;2023-09-30T07:40:02;15.18;;;8.15;;
65328;SDS011;51941;52.210;5.158;2023-09-30T07:42:31;15.32;;;8.60;;
65328;SDS011;51941;52.210;5.158;2023-09-30T07:44:58;12.83;;;7.93;;
65328;SDS011;51941;52.210;5.158;2023-09-30T07:47:25;13.25;;;7.75;;
65328;SDS011;51941;52.210;5.158;2023-09-30T07:49:52;15.45;;;7.65;;
65328;SDS011;51941;52.210;5.158;2023-09-30T07:52:19;13.20;;;7.20;;
65328;SDS011;51941;52.210;5.158;2023-09-30T07:54:45;11.18;;;7.10;;
65328;SDS011;51941;52.210;5.158;2023-09-30T07:57:12;12.43;;;6.75;;
65328;SDS011;51941;52.210;5.158;2023-09-30T07:59:41;13.38;;;6.88;;
65328;SDS011;51941;52.210;5.158;2023-09-30T08:02:08;12.45;;;7.22;;
65328;SDS011;51941;52.210;5.158;2023-09-30T08:04:35;12.45;;;7.47;;
65328;SDS011;51941;52.210;5.158;2023-09-30T08:07:01;12.82;;;7.32;;
65328;SDS011;51941;52.210;5.158;2023-09-30T08:09:28;13.98;;;7.85;;
65328;SDS011;51941;52.210;5.158;2023-09-30T08:11:55;15.85;;;8.52;;
65328;SDS011;51941;52.210;5.158;2023-09-30T08:14:22;12.73;;;7.75;;
65328;SDS011;51941;52.210;5.158;2023-09-30T08:16:50;14.55;;;8.18;;
65328;SDS011;51941;52.210;5.158;2023-09-30T08:19:16;15.00;;;7.78;;
65328;SDS011;51941;52.210;5.158;2023-09-30T08:21:46;13.57;;;7.82;;
65328;SDS011;51941;52.210;5.158;2023-09-30T08:24:12;14.27;;;7.82;;
65328;SDS011;51941;52.210;5.158;2023-09-30T08:26:39;19.65;;;8.45;;
65328;SDS011;51941;52.210;5.158;2023-09-30T08:29:06;13.82;;;7.90;;
65328;SDS011;51941;52.210;5.158;2023-09-30T08:31:33;13.93;;;8.00;;
65328;SDS011;51941;52.210;5.158;2023-09-30T08:34:01;13.52;;;7.95;;
65328;SDS011;51941;52.210;5.158;2023-09-30T08:36:29;13.10;;;8.00;;
65328;SDS011;51941;52.210;5.158;2023-09-30T08:38:56;14.95;;;7.47;;
65328;SDS011;51941;52.210;5.158;2023-09-30T08:41:24;15.85;;;8.27;;
65328;SDS011;51941;52.210;5.158;2023-09-30T08:43:59;12.63;;;7.60;;
65328;SDS011;51941;52.210;5.158;2023-09-30T08:46:27;15.90;;;7.90;;
65328;SDS011;51941;52.210;5.158;2023-09-30T08:48:57;18.48;;;8.48;;
65328;SDS011;51941;52.210;5.158;2023-09-30T08:51:26;13.25;;;7.63;;
65328;SDS011;51941;52.210;5.158;2023-09-30T08:53:55;14.38;;;8.20;;
65328;SDS011;51941;52.210;5.158;2023-09-30T08:56:24;12.05;;;7.47;;
65328;SDS011;51941;52.210;5.158;2023-09-30T08:58:53;13.43;;;8.00;;
65328;SDS011;51941;52.210;5.158;2023-09-30T09:01:24;16.75;;;7.07;;
65328;SDS011;51941;52.210;5.158;2023-09-30T09:03:51;11.70;;;6.68;;
65328;SDS011;51941;52.210;5.158;2023-09-30T09:06:19;13.00;;;6.65;;
65328;SDS011;51941;52.210;5.158;2023-09-30T09:08:48;13.45;;;7.00;;
65328;SDS011;51941;52.210;5.158;2023-09-30T09:11:15;10.63;;;6.57;;
65328;SDS011;51941;52.210;5.158;2023-09-30T09:13:46;13.15;;;6.97;;
65328;SDS011;51941;52.210;5.158;2023-09-30T09:16:15;11.25;;;6.97;;
65328;SDS011;51941;52.210;5.158;2023-09-30T09:18:43;14.48;;;6.93;;
65328;SDS011;51941;52.210;5.158;2023-09-30T09:21:11;8.90;;;5.88;;
65328;SDS011;51941;52.210;5.158;2023-09-30T09:23:40;12.50;;;6.22;;
65328;SDS011;51941;52.210;5.158;2023-09-30T09:26:09;11.82;;;6.35;;
65328;SDS011;51941;52.210;5.158;2023-09-30T09:28:37;10.65;;;5.57;;
65328;SDS011;51941;52.210;5.158;2023-09-30T09:33:48;10.38;;;5.93;;
65328;SDS011;51941;52.210;5.158;2023-09-30T09:36:15;11.27;;;5.50;;
65328;SDS011;51941;52.210;5.158;2023-09-30T09:38:45;12.73;;;5.25;;
65328;SDS011;51941;52.210;5.158;2023-09-30T09:41:16;12.68;;;5.45;;
65328;SDS011;51941;52.210;5.158;2023-09-30T09:43:43;12.57;;;5.83;;
65328;SDS011;51941;52.210;5.158;2023-09-30T09:46:10;10.50;;;5.90;;
65328;SDS011;51941;52.210;5.158;2023-09-30T09:48:39;11.20;;;4.63;;
65328;SDS011;51941;52.210;5.158;2023-09-30T09:51:06;8.00;;;4.55;;
65328;SDS011;51941;52.210;5.158;2023-09-30T09:53:37;10.90;;;4.97;;
65328;SDS011;51941;52.210;5.158;2023-09-30T09:56:07;8.40;;;4.43;;
65328;SDS011;51941;52.210;5.158;2023-09-30T09:58:38;16.80;;;5.85;;
65328;SDS011;51941;52.210;5.158;2023-09-30T10:01:08;10.43;;;4.72;;
65328;SDS011;51941;52.210;5.158;2023-09-30T10:03:36;6.65;;;3.90;;
65328;SDS011;51941;52.210;5.158;2023-09-30T10:06:04;9.60;;;4.28;;
65328;SDS011;51941;52.210;5.158;2023-09-30T10:08:32;8.98;;;4.28;;
65328;SDS011;51941;52.210;5.158;2023-09-30T10:11:02;7.53;;;3.53;;
65328;SDS011;51941;52.210;5.158;2023-09-30T10:13:53;7.72;;;3.25;;
65328;SDS011;51941;52.210;5.158;2023-09-30T10:19:15;13.13;;;3.70;;
65328;SDS011;51941;52.210;5.158;2023-09-30T10:24:47;12.93;;;3.42;;
65328;SDS011;51941;52.210;5.158;2023-09-30T10:27:33;9.60;;;3.40;;
65328;SDS011;51941;52.210;5.158;2023-09-30T10:30:13;8.57;;;3.65;;
65328;SDS011;51941;52.210;5.158;2023-09-30T10:35:43;7.53;;;3.08;;
65328;SDS011;51941;52.210;5.158;2023-09-30T10:41:08;8.77;;;3.70;;
65328;SDS011;51941;52.210;5.158;2023-09-30T10:43:38;12.70;;;4.05;;
65328;SDS011;51941;52.210;5.158;2023-09-30T10:49:15;9.82;;;3.25;;
65328;SDS011;51941;52.210;5.158;2023-09-30T10:51:43;8.30;;;4.00;;
65328;SDS011;51941;52.210;5.158;2023-09-30T10:54:12;9.63;;;2.92;;
65328;SDS011;51941;52.210;5.158;2023-09-30T10:56:39;10.52;;;3.42;;
65328;SDS011;51941;52.210;5.158;2023-09-30T10:59:06;9.30;;;3.83;;
65328;SDS011;51941;52.210;5.158;2023-09-30T11:01:35;7.07;;;3.03;;
65328;SDS011;51941;52.210;5.158;2023-09-30T11:04:03;9.32;;;3.13;;
65328;SDS011;51941;52.210;5.158;2023-09-30T11:06:32;9.15;;;2.75;;
65328;SDS011;51941;52.210;5.158;2023-09-30T11:08:59;8.68;;;2.65;;
65328;SDS011;51941;52.210;5.158;2023-09-30T11:11:34;8.13;;;2.67;;
65328;SDS011;51941;52.210;5.158;2023-09-30T11:14:17;6.75;;;2.70;;
65328;SDS011;51941;52.210;5.158;2023-09-30T11:16:46;5.00;;;2.08;;
65328;SDS011;51941;52.210;5.158;2023-09-30T11:19:13;5.65;;;1.90;;
65328;SDS011;51941;52.210;5.158;2023-09-30T11:21:41;6.13;;;2.20;;
65328;SDS011;51941;52.210;5.158;2023-09-30T11:24:10;10.25;;;2.10;;
65328;SDS011;51941;52.210;5.158;2023-09-30T11:26:37;5.80;;;1.70;;
65328;SDS011;51941;52.210;5.158;2023-09-30T11:29:07;7.97;;;2.22;;
65328;SDS011;51941;52.210;5.158;2023-09-30T11:31:36;7.70;;;2.40;;
65328;SDS011;51941;52.210;5.158;2023-09-30T11:34:05;4.88;;;1.90;;
65328;SDS011;51941;52.210;5.158;2023-09-30T11:36:34;6.55;;;2.13;;
65328;SDS011;51941;52.210;5.158;2023-09-30T11:39:02;4.47;;;1.80;;
65328;SDS011;51941;52.210;5.158;2023-09-30T11:41:33;8.23;;;2.20;;
65328;SDS011;51941;52.210;5.158;2023-09-30T11:44:03;7.38;;;2.28;;
65328;SDS011;51941;52.210;5.158;2023-09-30T11:46:47;4.40;;;1.60;;
65328;SDS011;51941;52.210;5.158;2023-09-30T11:49:25;6.72;;;1.65;;
65328;SDS011;51941;52.210;5.158;2023-09-30T11:51:53;8.52;;;2.05;;
65328;SDS011;51941;52.210;5.158;2023-09-30T11:54:20;5.72;;;1.90;;
65328;SDS011;51941;52.210;5.158;2023-09-30T11:56:48;7.03;;;2.00;;
65328;SDS011;51941;52.210;5.158;2023-09-30T11:59:16;4.80;;;1.92;;
65328;SDS011;51941;52.210;5.158;2023-09-30T12:01:44;5.40;;;2.10;;
65328;SDS011;51941;52.210;5.158;2023-09-30T12:04:14;6.82;;;2.15;;
65328;SDS011;51941;52.210;5.158;2023-09-30T12:06:43;8.10;;;1.98;;
65328;SDS011;51941;52.210;5.158;2023-09-30T12:09:10;7.97;;;2.13;;
65328;SDS011;51941;52.210;5.158;2023-09-30T12:11:39;10.00;;;2.28;;
65328;SDS011;51941;52.210;5.158;2023-09-30T12:16:36;9.63;;;2.00;;
65328;SDS011;51941;52.210;5.158;2023-09-30T12:19:03;6.72;;;1.92;;
65328;SDS011;51941;52.210;5.158;2023-09-30T12:21:30;5.45;;;1.95;;
65328;SDS011;51941;52.210;5.158;2023-09-30T12:24:01;7.75;;;2.20;;
65328;SDS011;51941;52.210;5.158;2023-09-30T12:26:28;6.38;;;2.20;;
65328;SDS011;51941;52.210;5.158;2023-09-30T12:28:55;7.13;;;2.20;;
65328;SDS011;51941;52.210;5.158;2023-09-30T12:31:23;6.10;;;2.20;;
65328;SDS011;51941;52.210;5.158;2023-09-30T12:33:50;9.07;;;2.22;;
65328;SDS011;51941;52.210;5.158;2023-09-30T12:36:18;7.38;;;2.05;;
65328;SDS011;51941;52.210;5.158;2023-09-30T12:38:46;5.90;;;2.28;;
65328;SDS011;51941;52.210;5.158;2023-09-30T12:41:15;7.25;;;1.77;;
65328;SDS011;51941;52.210;5.158;2023-09-30T12:43:44;6.35;;;1.92;;
65328;SDS011;51941;52.210;5.158;2023-09-30T12:46:11;8.75;;;2.20;;
65328;SDS011;51941;52.210;5.158;2023-09-30T12:48:39;7.63;;;2.45;;
65328;SDS011;51941;52.210;5.158;2023-09-30T12:51:06;7.63;;;1.77;;
65328;SDS011;51941;52.210;5.158;2023-09-30T12:53:35;6.32;;;1.88;;
65328;SDS011;51941;52.210;5.158;2023-09-30T12:56:02;6.05;;;1.88;;
65328;SDS011;51941;52.210;5.158;2023-09-30T12:58:30;5.93;;;1.95;;
65328;SDS011;51941;52.210;5.158;2023-09-30T13:03:25;6.40;;;1.60;;
65328;SDS011;51941;52.210;5.158;2023-09-30T13:05:51;5.95;;;1.98;;
65328;SDS011;51941;52.210;5.158;2023-09-30T13:08:19;7.75;;;1.60;;
65328;SDS011;51941;52.210;5.158;2023-09-30T13:10:46;5.30;;;1.70;;
65328;SDS011;51941;52.210;5.158;2023-09-30T13:13:13;7.32;;;2.00;;
65328;SDS011;51941;52.210;5.158;2023-09-30T13:15:42;7.00;;;2.03;;
65328;SDS011;51941;52.210;5.158;2023-09-30T13:18:09;7.00;;;2.15;;
65328;SDS011;51941;52.210;5.158;2023-09-30T13:20:35;8.82;;;2.15;;
65328;SDS011;51941;52.210;5.158;2023-09-30T13:23:02;6.78;;;2.15;;
65328;SDS011;51941;52.210;5.158;2023-09-30T13:25:29;6.35;;;1.80;;
65328;SDS011;51941;52.210;5.158;2023-09-30T13:27:56;8.68;;;2.20;;
65328;SDS011;51941;52.210;5.158;2023-09-30T13:30:23;6.68;;;1.90;;
65328;SDS011;51941;52.210;5.158;2023-09-30T13:32:51;6.85;;;2.10;;
65328;SDS011;51941;52.210;5.158;2023-09-30T13:35:17;8.70;;;2.28;;
65328;SDS011;51941;52.210;5.158;2023-09-30T13:37:44;6.82;;;2.67;;
65328;SDS011;51941;52.210;5.158;2023-09-30T13:40:11;6.90;;;2.40;;
65328;SDS011;51941;52.210;5.158;2023-09-30T13:42:39;7.15;;;2.35;;
65328;SDS011;51941;52.210;5.158;2023-09-30T13:45:07;6.40;;;2.10;;
65328;SDS011;51941;52.210;5.158;2023-09-30T13:47:35;6.72;;;2.28;;
65328;SDS011;51941;52.210;5.158;2023-09-30T13:50:07;7.50;;;2.30;;
65328;SDS011;51941;52.210;5.158;2023-09-30T13:52:34;9.15;;;2.58;;
65328;SDS011;51941;52.210;5.158;2023-09-30T13:55:01;9.48;;;2.45;;
65328;SDS011;51941;52.210;5.158;2023-09-30T13:57:28;5.18;;;2.03;;
65328;SDS011;51941;52.210;5.158;2023-09-30T13:59:55;7.85;;;2.40;;
65328;SDS011;51941;52.210;5.158;2023-09-30T14:02:22;10.45;;;2.90;;
65328;SDS011;51941;52.210;5.158;2023-09-30T14:04:49;9.23;;;2.55;;
65328;SDS011;51941;52.210;5.158;2023-09-30T14:07:17;10.18;;;3.30;;
65328;SDS011;51941;52.210;5.158;2023-09-30T14:09:44;8.93;;;2.65;;
65328;SDS011;51941;52.210;5.158;2023-09-30T14:12:14;8.02;;;2.65;;
65328;SDS011;51941;52.210;5.158;2023-09-30T14:14:41;7.97;;;2.45;;
65328;SDS011;51941;52.210;5.158;2023-09-30T14:17:07;5.47;;;2.22;;
65328;SDS011;51941;52.210;5.158;2023-09-30T14:19:36;7.38;;;2.50;;
65328;SDS011;51941;52.210;5.158;2023-09-30T14:22:03;6.22;;;2.28;;
65328;SDS011;51941;52.210;5.158;2023-09-30T14:24:32;7.97;;;2.50;;
65328;SDS011;51941;52.210;5.158;2023-09-30T14:26:59;6.97;;;2.50;;
65328;SDS011;51941;52.210;5.158;2023-09-30T14:29:29;9.98;;;3.20;;
65328;SDS011;51941;52.210;5.158;2023-09-30T14:31:57;9.30;;;2.95;;
65328;SDS011;51941;52.210;5.158;2023-09-30T14:34:24;7.30;;;2.55;;
65328;SDS011;51941;52.210;5.158;2023-09-30T14:36:51;6.13;;;2.53;;
65328;SDS011;51941;52.210;5.158;2023-09-30T14:39:18;7.97;;;3.05;;
65328;SDS011;51941;52.210;5.158;2023-09-30T14:41:46;9.52;;;3.15;;
65328;SDS011;51941;52.210;5.158;2023-09-30T14:44:13;12.05;;;3.20;;
65328;SDS011;51941;52.210;5.158;2023-09-30T14:46:40;8.48;;;2.88;;
65328;SDS011;51941;52.210;5.158;2023-09-30T14:49:07;9.52;;;2.80;;
65328;SDS011;51941;52.210;5.158;2023-09-30T14:51:34;7.22;;;2.60;;
65328;SDS011;51941;52.210;5.158;2023-09-30T14:54:02;7.53;;;2.60;;
65328;SDS011;51941;52.210;5.158;2023-09-30T14:56:29;9.05;;;3.05;;
65328;SDS011;51941;52.210;5.158;2023-09-30T14:58:57;6.53;;;2.58;;
65328;SDS011;51941;52.210;5.158;2023-09-30T15:01:25;7.65;;;2.78;;
65328;SDS011;51941;52.210;5.158;2023-09-30T15:03:51;8.70;;;3.50;;